Time;durP1;ratioP1;P1;durP2;ratioP2;P2;SDS_P1;SDS_P2;PMS_P1;PMS_P2;Temp;Humidity;BMP_temperature;BMP_pressure;BME280_temperature;BME280_humidity;BME280_pressure;Samples;Min_cycle;Max_cycle;Signal;HPM_P1;HPM_P2
2021/05/06 00:35:32;;;;;;;2.05;0.85;;;18.30;32.40;;;;;;8395314;28;20029;-48
2021/05/06 00:39:44;;;;;;;1.38;0.90;;;18.30;32.40;;;;;;8391624;28;20106;-48
2021/05/06 00:56:55;;;;;;;1.33;1.00;;;18.30;32.50;;;;;;8396408;28;20098;-46
2021/05/06 01:09:29;;;;;;;0.60;0.60;;;18.30;32.50;;;;;;8391402;28;20041;-50
2021/05/06 01:13:32;;;;;;;1.88;0.85;;;18.30;32.50;;;;;;8389456;28;20472;-46
2021/05/06 01:17:33;;;;;;;1.70;0.90;;;18.30;32.50;;;;;;8395835;28;20079;-48
2021/05/06 01:21:34;;;;;;;1.93;0.83;;;18.30;32.50;;;;;;8391126;28;20040;-47
2021/05/06 01:25:34;;;;;;;2.13;1.03;;;18.20;32.50;;;;;;8389523;28;20082;-47
2021/05/06 01:29:42;;;;;;;1.00;0.87;;;18.20;32.50;;;;;;8390862;28;20036;-47
2021/05/06 01:33:48;;;;;;;2.22;1.00;;;18.20;32.50;;;;;;8390693;28;20064;-47
2021/05/06 01:38:14;;;;;;;2.30;1.00;;;18.20;32.50;;;;;;8400209;28;20440;-47
2021/05/06 01:42:24;;;;;;;2.08;0.90;;;18.20;32.50;;;;;;8397608;28;20055;-46
2021/05/06 01:50:37;;;;;;;1.57;1.13;;;18.20;32.60;;;;;;8397613;28;20054;-50
2021/05/06 02:03:29;;;;;;;0.88;0.63;;;18.10;32.50;;;;;;8376954;28;20044;-45
2021/05/06 02:07:30;;;;;;;2.73;1.00;;;18.10;32.50;;;;;;8385918;28;20037;-48
2021/05/06 02:11:31;;;;;;;1.37;0.90;;;18.20;32.60;;;;;;8397242;28;20102;-48
2021/05/06 02:15:43;;;;;;;1.43;0.97;;;18.10;32.50;;;;;;8396386;28;20031;-45
2021/05/06 02:19:47;;;;;;;3.08;1.08;;;18.10;32.50;;;;;;8399062;28;20473;-50
2021/05/06 02:23:47;;;;;;;1.50;1.13;;;18.10;32.60;;;;;;8396079;28;20059;-48
2021/05/06 02:27:49;;;;;;;1.60;1.00;;;18.10;32.60;;;;;;8396264;28;20031;-47
2021/05/06 02:31:49;;;;;;;1.00;0.80;;;18.10;32.60;;;;;;8390288;28;20174;-46
2021/05/06 02:35:50;;;;;;;1.03;0.70;;;18.10;32.60;;;;;;8364918;28;20025;-46
2021/05/06 02:39:50;;;;;;;1.67;0.97;;;18.10;32.60;;;;;;8364958;28;20068;-47
2021/05/06 02:43:51;;;;;;;1.47;1.10;;;18.10;32.60;;;;;;8365318;28;20032;-49
2021/05/06 02:47:51;;;;;;;1.80;0.90;;;18.10;32.60;;;;;;8381286;28;20028;-46
2021/05/06 02:51:56;;;;;;;2.50;1.00;;;18.10;32.60;;;;;;8366240;28;20507;-48
2021/05/06 03:04:18;;;;;;;3.22;1.00;;;18.00;32.60;;;;;;8395320;28;20036;-48
2021/05/06 03:08:43;;;;;;;1.97;1.00;;;18.00;32.60;;;;;;8393102;28;20036;-46
2021/05/06 03:25:20;;;;;;;1.57;1.07;;;18.00;32.70;;;;;;8394490;28;20037;-49
2021/05/06 03:29:29;;;;;;;1.13;0.98;;;18.00;32.70;;;;;;8392866;28;20037;-48
2021/05/06 03:42:13;;;;;;;1.23;1.00;;;18.00;32.70;;;;;;8394059;28;20464;-48
2021/05/06 03:46:39;;;;;;;2.08;1.17;;;18.00;32.70;;;;;;8393696;28;20082;-47
2021/05/06 04:16:48;;;;;;;1.40;1.08;;;18.00;32.80;;;;;;8391387;28;20509;-50
2021/05/06 04:38:01;;;;;;;2.40;1.15;;;18.00;32.80;;;;;;8390469;28;20102;-46
2021/05/06 04:42:28;;;;;;;1.27;1.03;;;18.00;32.80;;;;;;8392172;28;20068;-46
2021/05/06 04:50:16;;;;;;;1.52;1.10;;;18.00;32.80;;;;;;8365152;28;20400;-49
2021/05/06 04:55:30;;;;;;;1.52;1.10;;;17.90;32.80;;;;;;8361562;28;20048;-47
2021/05/06 05:03:52;;;;;;;3.42;1.55;;;17.90;32.80;;;;;;8391603;28;20378;-47
2021/05/06 05:07:58;;;;;;;1.35;1.02;;;17.90;32.80;;;;;;8389620;28;20032;-48
2021/05/06 05:20:47;;;;;;;1.38;0.80;;;17.90;32.80;;;;;;8390156;28;20547;-48
2021/05/06 05:24:59;;;;;;;2.45;1.00;;;18.00;32.80;;;;;;8391133;28;20040;-48
2021/05/06 05:28:59;;;;;;;;;;;17.90;32.80;;;;;;8389548;28;20039;-48
2021/05/06 05:33:00;;;;;;;0.90;0.80;;;17.90;32.80;;;;;;8377266;28;19913;-47
2021/05/06 05:37:01;;;;;;;1.37;1.00;;;18.00;32.90;;;;;;8384442;28;20028;-47
2021/05/06 05:41:14;;;;;;;3.47;1.00;;;18.00;32.90;;;;;;8389464;28;20617;-49
2021/05/06 05:58:11;;;;;;;2.67;1.08;;;18.00;32.80;;;;;;8394986;28;20404;-46
2021/05/06 06:02:12;;;;;;;1.83;1.17;;;18.00;32.80;;;;;;8380638;28;20124;-47
2021/05/06 06:06:12;;;;;;;1.73;0.93;;;18.00;32.80;;;;;;8372578;28;20025;-47
2021/05/06 06:10:13;;;;;;;2.30;1.23;;;18.00;32.80;;;;;;8390061;28;20540;-49
2021/05/06 06:14:18;;;;;;;1.23;0.97;;;18.00;32.80;;;;;;8392978;28;20067;-50
2021/05/06 06:22:40;;;;;;;1.60;0.95;;;18.10;32.80;;;;;;8392503;28;20037;-51
2021/05/06 06:26:40;;;;;;;1.27;1.13;;;18.10;32.80;;;;;;8396211;28;20033;-46
2021/05/06 06:30:41;;;;;;;1.03;0.87;;;18.10;32.80;;;;;;8396017;28;20068;-49
2021/05/06 06:34:42;;;;;;;1.95;1.00;;;18.10;32.80;;;;;;8398787;28;20070;-47
2021/05/06 06:38:46;;;;;;;1.17;1.00;;;18.10;32.80;;;;;;8395639;28;20512;-46
2021/05/06 06:42:47;;;;;;;1.63;1.10;;;18.10;32.80;;;;;;8395719;28;20039;-48
2021/05/06 06:47:00;;;;;;;2.30;1.20;;;18.10;32.80;;;;;;8394267;28;20040;-48
2021/05/06 06:51:01;;;;;;;2.63;1.10;;;18.10;32.70;;;;;;8395507;28;20080;-48
2021/05/06 06:55:01;;;;;;;1.53;1.30;;;18.10;32.80;;;;;;8400022;28;20047;-48
2021/05/06 06:59:02;;;;;;;1.70;1.10;;;18.10;32.80;;;;;;8393741;27;20049;-49
2021/05/06 07:03:03;;;;;;;1.63;1.20;;;18.10;32.80;;;;;;8395260;28;20032;-47
2021/05/06 07:07:03;;;;;;;1.33;1.10;;;18.10;32.80;;;;;;8393061;28;20465;-46
2021/05/06 07:11:07;;;;;;;1.47;1.20;;;18.10;32.80;;;;;;8397988;28;20021;-51
2021/05/06 07:15:08;;;;;;;1.50;1.10;;;18.10;32.80;;;;;;8394749;28;20032;-46
2021/05/06 07:19:08;;;;;;;2.65;0.90;;;18.10;32.80;;;;;;8394362;28;20067;-50
2021/05/06 07:23:13;;;;;;;1.10;0.90;;;18.10;32.80;;;;;;8368289;28;20116;-46
2021/05/06 07:27:14;;;;;;;1.38;0.82;;;18.10;32.80;;;;;;8394602;28;20033;-47
2021/05/06 07:31:14;;;;;;;1.53;0.90;;;18.10;32.80;;;;;;8398550;28;20067;-46
2021/05/06 07:35:15;;;;;;;2.30;1.13;;;18.10;32.70;;;;;;8392651;28;20504;-47
2021/05/06 07:39:15;;;;;;;3.30;1.17;;;18.20;32.80;;;;;;8394277;28;20405;-46
2021/05/06 07:43:16;;;;;;;1.53;1.37;;;18.10;32.70;;;;;;8393974;28;20036;-47
2021/05/06 07:47:16;;;;;;;1.20;1.10;;;18.20;32.80;;;;;;8396766;28;20458;-49
2021/05/06 07:51:17;;;;;;;2.77;1.33;;;18.20;32.80;;;;;;8393638;28;20036;-46
2021/05/06 07:55:17;;;;;;;1.30;1.10;;;18.10;32.80;;;;;;8393313;28;20036;-51
2021/05/06 07:59:18;;;;;;;3.07;1.30;;;18.20;32.80;;;;;;8391718;28;20044;-48
2021/05/06 08:03:19;;;;;;;1.03;0.93;;;18.10;32.80;;;;;;8398138;28;20043;-48
2021/05/06 08:07:19;;;;;;;1.47;1.10;;;18.10;32.80;;;;;;8391791;28;20043;-49
2021/05/06 08:11:21;;;;;;;1.60;1.10;;;18.20;32.90;;;;;;8392780;28;20037;-48
2021/05/06 08:15:23;;;;;;;1.25;1.02;;;18.10;32.80;;;;;;8392705;28;20408;-48
2021/05/06 08:19:23;;;;;;;1.25;1.10;;;18.20;32.90;;;;;;8391244;28;20131;-46
2021/05/06 08:23:24;;;;;;;1.50;1.40;;;18.10;32.80;;;;;;8397327;28;20025;-46
2021/05/06 08:27:24;;;;;;;2.20;1.50;;;18.10;32.90;;;;;;8392792;28;20497;-47
2021/05/06 08:31:26;;;;;;;2.37;1.10;;;18.10;32.90;;;;;;8390531;28;20489;-46
2021/05/06 08:35:26;;;;;;;2.03;1.23;;;18.10;32.90;;;;;;8380717;28;20057;-49
2021/05/06 08:39:27;;;;;;;2.77;2.43;;;18.10;32.90;;;;;;8372801;28;20052;-45
2021/05/06 08:43:31;;;;;;;1.47;1.30;;;18.10;32.90;;;;;;8386604;28;20585;-46
2021/05/06 08:47:32;;;;;;;4.20;1.50;;;18.10;32.90;;;;;;8367384;28;20167;-45
2021/05/06 08:51:35;;;;;;;3.63;1.50;;;18.10;32.90;;;;;;8374943;28;20040;-47
2021/05/06 08:55:36;;;;;;;3.15;1.40;;;18.10;32.90;;;;;;8389080;28;20036;-51
2021/05/06 08:59:36;;;;;;;2.45;1.52;;;18.20;33.00;;;;;;8362663;28;20079;-46
2021/05/06 09:03:37;;;;;;;2.00;1.43;;;18.20;33.00;;;;;;8382788;28;20044;-49
2021/05/06 09:07:44;;;;;;;2.57;1.70;;;18.10;33.00;;;;;;8388886;28;20037;-46
2021/05/06 09:11:54;;;;;;;1.40;1.20;;;18.10;33.00;;;;;;8391179;28;20044;-46
2021/05/06 09:15:55;;;;;;;3.85;1.67;;;18.10;33.00;;;;;;8395832;28;20040;-46
2021/05/06 09:20:21;;;;;;;1.37;1.13;;;18.20;33.10;;;;;;8389220;28;20037;-50
2021/05/06 09:24:28;;;;;;;1.95;1.52;;;18.10;33.10;;;;;;8390843;28;20048;-50
2021/05/06 09:28:30;;;;;;;3.17;1.70;;;18.20;33.20;;;;;;8389142;28;20028;-50
2021/05/06 09:32:32;;;;;;;;;;;18.20;33.10;;;;;;8391279;28;20059;-51
2021/05/06 09:36:33;;;;;;;2.80;1.63;;;18.20;33.20;;;;;;8395443;28;19912;-51
2021/05/06 09:40:46;;;;;;;1.77;1.67;;;18.10;33.10;;;;;;8389090;28;20063;-47
2021/05/06 09:44:51;;;;;;;2.03;1.65;;;18.10;33.20;;;;;;8390708;28;20037;-50
2021/05/06 09:49:11;;;;;;;2.10;1.67;;;18.20;33.30;;;;;;8391060;28;20036;-49
2021/05/06 09:53:18;;;;;;;1.88;1.58;;;18.10;33.30;;;;;;8389046;28;20048;-48
2021/05/06 09:57:30;;;;;;;2.13;1.75;;;18.10;33.30;;;;;;8398436;28;20059;-48
2021/05/06 10:01:41;;;;;;;2.15;1.70;;;18.10;33.30;;;;;;8395545;28;20040;-48
2021/05/06 10:05:44;;;;;;;1.90;1.70;;;18.20;33.40;;;;;;8397097;28;20036;-50
2021/05/06 10:09:56;;;;;;;2.95;1.95;;;18.10;33.30;;;;;;8396459;28;20037;-49
2021/05/06 10:13:59;;;;;;;1.60;1.50;;;18.20;33.40;;;;;;8394927;28;20089;-45
2021/05/06 10:17:59;;;;;;;2.70;1.60;;;18.10;33.40;;;;;;8401182;28;20091;-51
2021/05/06 10:22:00;;;;;;;6.47;1.63;;;18.10;33.40;;;;;;8396516;28;20039;-47
2021/05/06 10:26:02;;;;;;;2.67;1.67;;;18.10;33.40;;;;;;8394489;28;20503;-48
2021/05/06 10:30:04;;;;;;;3.10;1.80;;;18.20;33.50;;;;;;8396619;28;20521;-47
2021/05/06 10:34:06;;;;;;;2.45;1.80;;;18.20;33.50;;;;;;8400595;28;20032;-48
2021/05/06 10:38:07;;;;;;;1.58;1.40;;;18.10;33.50;;;;;;8394088;28;20052;-48
2021/05/06 10:42:28;;;;;;;2.20;1.40;;;18.20;33.60;;;;;;8395852;28;20124;-46
2021/05/06 10:46:56;;;;;;;1.65;1.55;;;18.20;33.60;;;;;;8369128;28;20036;-46
2021/05/06 10:50:56;;;;;;;2.75;1.63;;;18.10;33.60;;;;;;8395615;28;20072;-50
2021/05/06 10:54:57;;;;;;;3.57;1.67;;;18.10;33.60;;;;;;8398985;28;20059;-46
2021/05/06 10:59:27;;;;;;;2.37;1.63;;;18.10;33.70;;;;;;8393374;28;20060;-49
2021/05/06 11:03:28;;;;;;;1.95;1.42;;;18.20;33.70;;;;;;8395155;28;20033;-46
2021/05/06 11:07:29;;;;;;;1.50;1.33;;;18.20;33.70;;;;;;8393342;28;20507;-51
2021/05/06 11:11:29;;;;;;;3.37;1.50;;;18.10;33.70;;;;;;8394887;28;20126;-48
2021/05/06 11:15:32;;;;;;;1.80;1.50;;;18.10;33.70;;;;;;8399169;28;20040;-48
2021/05/06 11:19:40;;;;;;;3.67;1.63;;;18.10;33.70;;;;;;8392708;28;20055;-47
2021/05/06 11:23:40;;;;;;;2.00;1.58;;;18.10;33.70;;;;;;8393373;28;20033;-48
2021/05/06 11:27:41;;;;;;;1.60;1.50;;;18.20;33.80;;;;;;8394131;28;20407;-49
2021/05/06 11:31:46;;;;;;;3.37;1.40;;;18.10;33.80;;;;;;8392326;28;20464;-52
2021/05/06 11:36:02;;;;;;;2.80;1.70;;;18.10;33.80;;;;;;8398852;28;20457;-46
2021/05/06 11:40:09;;;;;;;1.63;1.20;;;18.10;33.80;;;;;;8394212;28;20078;-49
2021/05/06 11:44:10;;;;;;;2.65;1.38;;;18.20;33.90;;;;;;8391985;28;20036;-47
2021/05/06 11:48:11;;;;;;;3.47;1.63;;;18.10;33.80;;;;;;8393831;28;20024;-47
2021/05/06 11:52:12;;;;;;;2.65;1.55;;;18.10;33.80;;;;;;8398044;28;20036;-48
2021/05/06 11:56:14;;;;;;;2.23;1.40;;;18.10;33.90;;;;;;8391098;28;20020;-51
2021/05/06 12:00:15;;;;;;;2.17;1.63;;;18.10;33.90;;;;;;8392963;28;20051;-48
2021/05/06 12:04:33;;;;;;;1.88;1.30;;;18.10;33.90;;;;;;8393087;28;20040;-48
2021/05/06 12:08:46;;;;;;;2.38;1.25;;;18.10;33.90;;;;;;8391514;28;20045;-48
2021/05/06 12:13:00;;;;;;;1.40;1.30;;;18.20;34.00;;;;;;8397519;28;20139;-49
2021/05/06 12:17:01;;;;;;;1.85;1.60;;;18.10;34.00;;;;;;8390837;28;20063;-46
2021/05/06 12:21:04;;;;;;;2.83;1.67;;;18.20;34.10;;;;;;8392529;28;20048;-48
2021/05/06 12:25:05;;;;;;;1.30;1.20;;;18.10;34.00;;;;;;8392241;28;20052;-49
2021/05/06 12:29:06;;;;;;;2.37;1.50;;;18.10;34.00;;;;;;8390478;28;20516;-52
2021/05/06 12:33:07;;;;;;;1.63;1.20;;;18.10;34.10;;;;;;8396802;28;20119;-47
2021/05/06 12:37:08;;;;;;;2.00;1.20;;;18.10;34.10;;;;;;8392048;28;20032;-47
2021/05/06 12:41:10;;;;;;;1.27;1.07;;;18.10;34.10;;;;;;8390230;28;20565;-47
2021/05/06 12:45:13;;;;;;;2.40;1.52;;;18.20;34.20;;;;;;8391637;28;20032;-50
2021/05/06 12:49:23;;;;;;;1.30;1.02;;;18.10;34.10;;;;;;8396416;28;20036;-47
2021/05/06 12:53:24;;;;;;;2.35;1.13;;;18.20;34.20;;;;;;8349211;28;20072;-48
2021/05/06 12:57:24;;;;;;;2.23;1.20;;;18.10;34.20;;;;;;8365145;28;20028;-49
2021/05/06 13:01:30;;;;;;;2.50;1.10;;;18.20;34.70;;;;;;8389648;28;20072;-47
2021/05/06 13:05:35;;;;;;;3.53;1.33;;;18.10;34.20;;;;;;8391616;28;20029;-51
2021/05/06 13:09:41;;;;;;;1.48;1.20;;;18.10;34.20;;;;;;8396057;28;20028;-50
2021/05/06 13:13:42;;;;;;;1.52;1.20;;;18.20;34.30;;;;;;8389565;28;20067;-47
2021/05/06 13:17:43;;;;;;;;;;;18.10;34.20;;;;;;8391752;28;20086;-51
2021/05/06 13:21:50;;;;;;;2.58;1.05;;;18.10;34.30;;;;;;8391045;28;19923;-48
2021/05/06 13:25:52;;;;;;;2.25;1.25;;;18.10;34.30;;;;;;8393608;28;20033;-47
2021/05/06 13:29:58;;;;;;;1.60;1.23;;;18.10;34.30;;;;;;8390439;28;20396;-50
2021/05/06 13:34:13;;;;;;;1.20;1.00;;;18.10;34.40;;;;;;8390615;28;20029;-48
2021/05/06 13:38:14;;;;;;;1.30;1.20;;;18.20;34.40;;;;;;8388944;28;20059;-51
2021/05/06 13:42:15;;;;;;;1.50;1.10;;;18.20;34.40;;;;;;8390643;28;20115;-48
2021/05/06 13:46:17;;;;;;;1.40;1.02;;;18.10;34.40;;;;;;8395174;28;20063;-49
2021/05/06 13:50:17;;;;;;;;;;;18.10;34.40;;;;;;8389233;28;20075;-51
2021/05/06 13:54:19;;;;;;;1.52;1.15;;;18.10;34.40;;;;;;8390686;28;19912;-52
2021/05/06 13:58:20;;;;;;;1.55;1.00;;;18.10;34.40;;;;;;8388923;28;20055;-49
2021/05/06 14:02:21;;;;;;;1.70;1.10;;;18.10;34.50;;;;;;8393279;28;20385;-49
2021/05/06 14:06:22;;;;;;;1.23;1.10;;;18.10;34.50;;;;;;8392677;27;20485;-52
2021/05/06 14:10:22;;;;;;;1.20;0.90;;;18.10;34.50;;;;;;8388628;28;20045;-49
2021/05/06 14:14:23;;;;;;;1.10;1.00;;;18.20;34.50;;;;;;8389967;28;20364;-50
2021/05/06 14:18:23;;;;;;;1.30;1.03;;;18.10;34.50;;;;;;8389903;28;20047;-49
2021/05/06 14:22:27;;;;;;;2.23;1.80;;;18.10;34.50;;;;;;8392816;28;20379;-49
2021/05/06 14:26:27;;;;;;;1.38;1.08;;;18.10;34.60;;;;;;8390191;28;20035;-49
2021/05/06 14:30:28;;;;;;;1.87;1.30;;;18.10;34.60;;;;;;8372371;28;20037;-48
2021/05/06 14:34:28;;;;;;;1.53;1.00;;;18.10;34.60;;;;;;8380861;28;20032;-49
2021/05/06 14:38:29;;;;;;;1.27;0.90;;;18.10;34.60;;;;;;8384153;28;20455;-49
2021/05/06 14:42:30;;;;;;;2.00;1.07;;;18.20;34.70;;;;;;8375922;28;20056;-50
2021/05/06 14:46:30;;;;;;;1.03;1.00;;;18.10;34.70;;;;;;8376084;28;20396;-48
2021/05/06 14:50:32;;;;;;;1.60;1.00;;;18.10;34.70;;;;;;8394694;28;20051;-52
2021/05/06 14:54:34;;;;;;;1.80;1.23;;;18.10;34.70;;;;;;8394036;28;20123;-50
2021/05/06 14:58:35;;;;;;;1.40;1.05;;;18.10;34.80;;;;;;8397878;28;20048;-50
2021/05/06 15:02:36;;;;;;;1.70;1.10;;;18.10;34.80;;;;;;8395076;28;20065;-51
2021/05/06 15:06:36;;;;;;;2.20;1.00;;;18.10;34.80;;;;;;8395060;28;20396;-50
2021/05/06 15:10:37;;;;;;;1.43;1.17;;;18.10;34.80;;;;;;8393202;27;20041;-50
2021/05/06 15:14:37;;;;;;;1.07;0.90;;;18.10;34.90;;;;;;8399243;28;20474;-52
2021/05/06 15:18:38;;;;;;;1.70;0.90;;;18.10;34.90;;;;;;8394736;28;20055;-49
2021/05/06 15:22:38;;;;;;;1.37;1.00;;;18.10;34.90;;;;;;8392834;28;20041;-49
2021/05/06 15:26:39;;;;;;;1.60;1.30;;;18.10;34.90;;;;;;8394258;28;20032;-48
2021/05/06 15:30:39;;;;;;;1.63;1.00;;;18.10;34.90;;;;;;8398574;28;20063;-48
2021/05/06 15:34:40;;;;;;;2.47;1.13;;;18.10;35.00;;;;;;8392208;28;20537;-50
2021/05/06 15:38:41;;;;;;;1.33;1.20;;;18.10;35.00;;;;;;8393894;28;20106;-50
2021/05/06 15:42:42;;;;;;;1.23;0.80;;;18.10;35.00;;;;;;8373210;28;20439;-51
2021/05/06 15:46:43;;;;;;;1.80;1.50;;;18.10;35.00;;;;;;8387083;28;20039;-49
2021/05/06 15:50:44;;;;;;;1.57;1.03;;;18.00;35.00;;;;;;8398183;28;20028;-49
2021/05/06 15:54:45;;;;;;;2.20;1.03;;;18.10;35.00;;;;;;8393381;28;20040;-52
2021/05/06 15:58:45;;;;;;;1.97;1.37;;;18.00;35.10;;;;;;8391901;28;20094;-47
2021/05/06 16:02:48;;;;;;;1.10;1.00;;;18.00;35.10;;;;;;8393922;28;20033;-52
2021/05/06 16:06:48;;;;;;;2.47;0.93;;;18.10;35.10;;;;;;8397806;28;20400;-47
2021/05/06 16:10:50;;;;;;;1.57;1.27;;;18.00;35.10;;;;;;8391509;28;20031;-47
2021/05/06 16:14:51;;;;;;;1.63;1.10;;;18.00;35.20;;;;;;8392867;28;20028;-48
2021/05/06 16:18:51;;;;;;;1.20;1.10;;;18.00;35.20;;;;;;8392665;28;20528;-47
2021/05/06 16:22:52;;;;;;;1.77;1.10;;;18.00;35.20;;;;;;8386348;28;20033;-46
2021/05/06 16:26:53;;;;;;;1.03;0.93;;;18.00;35.20;;;;;;8384816;28;20142;-48
2021/05/06 16:30:53;;;;;;;1.30;0.90;;;18.00;35.20;;;;;;8369590;28;20032;-49
2021/05/06 16:34:54;;;;;;;1.00;0.90;;;18.00;35.30;;;;;;8371657;28;20040;-50
2021/05/06 16:43:12;;;;;;;2.65;1.10;;;18.00;35.30;;;;;;8386198;28;20368;-48
2021/05/06 16:47:13;;;;;;;1.63;0.90;;;18.10;35.40;;;;;;8390718;28;20125;-49
2021/05/06 16:51:13;;;;;;;2.07;1.10;;;18.00;35.30;;;;;;8374385;28;20033;-49
2021/05/06 16:55:15;;;;;;;1.37;1.00;;;18.00;35.30;;;;;;8358182;28;20056;-49
2021/05/06 16:59:15;;;;;;;;;;;18.00;35.40;;;;;;8359291;28;20063;-49
2021/05/06 17:03:17;;;;;;;1.33;1.05;;;18.00;35.40;;;;;;8394531;28;19912;-50
2021/05/06 17:07:17;;;;;;;1.38;1.13;;;18.00;35.50;;;;;;8359047;28;20028;-47
2021/05/06 17:11:18;;;;;;;1.87;1.23;;;18.00;35.50;;;;;;8345609;28;20404;-49
2021/05/06 17:15:19;;;;;;;1.90;1.13;;;18.00;35.50;;;;;;8384996;28;20035;-51
2021/05/06 17:19:20;;;;;;;;;;;18.00;35.50;;;;;;8394263;28;20051;-49
2021/05/06 17:23:21;;;;;;;1.85;1.10;;;18.10;35.50;;;;;;8391357;28;20360;-50
2021/05/06 17:27:22;;;;;;;2.58;1.05;;;18.00;35.60;;;;;;8390911;28;20040;-51
2021/05/06 17:31:23;;;;;;;1.20;1.00;;;18.00;35.60;;;;;;8386314;28;20484;-51
2021/05/06 17:35:23;;;;;;;1.50;1.20;;;18.00;35.60;;;;;;8362138;28;20067;-51
2021/05/06 17:39:24;;;;;;;1.13;0.98;;;18.10;35.60;;;;;;8389394;28;20040;-50
2021/05/06 17:43:25;;;;;;;1.08;0.98;;;18.00;35.60;;;;;;8385424;28;20057;-52
2021/05/06 17:47:26;;;;;;;1.90;0.97;;;18.10;35.70;;;;;;8369967;28;20123;-48
2021/05/06 17:51:26;;;;;;;1.77;1.20;;;18.00;35.60;;;;;;8363542;28;20037;-50
2021/05/06 17:55:27;;;;;;;2.27;0.90;;;18.00;35.60;;;;;;8385929;28;20044;-49
2021/05/06 17:59:28;;;;;;;1.93;1.30;;;18.10;35.70;;;;;;8390273;28;20048;-50
2021/05/06 18:03:29;;;;;;;1.55;1.10;;;18.00;35.70;;;;;;8390366;28;20043;-51
2021/05/06 18:07:30;;;;;;;0.85;0.85;;;18.10;35.70;;;;;;8374702;28;20036;-51
2021/05/06 18:11:34;;;;;;;0.80;0.80;;;18.00;35.70;;;;;;8394843;28;20049;-49
2021/05/06 18:15:35;;;;;;;1.98;1.10;;;18.00;35.70;;;;;;8390448;28;20128;-46
2021/05/06 18:19:38;;;;;;;4.33;1.00;;;18.00;35.80;;;;;;8393817;28;20048;-49
2021/05/06 18:23:39;;;;;;;1.60;1.10;;;18.00;35.70;;;;;;8393699;28;20036;-53
2021/05/06 18:27:40;;;;;;;1.60;0.80;;;18.00;35.80;;;;;;8397677;28;20544;-49
2021/05/06 18:31:43;;;;;;;2.40;1.23;;;18.10;35.90;;;;;;8397871;28;20021;-48
2021/05/06 18:35:43;;;;;;;1.90;1.08;;;18.10;35.90;;;;;;8387798;28;20037;-48
2021/05/06 18:39:44;;;;;;;2.00;1.20;;;18.10;35.90;;;;;;8380632;28;20060;-47
2021/05/06 18:43:45;;;;;;;2.00;1.10;;;18.00;35.90;;;;;;8365516;28;20037;-47
2021/05/06 18:47:45;;;;;;;1.40;1.10;;;18.00;35.90;;;;;;8400403;28;20035;-50
2021/05/06 18:51:46;;;;;;;1.10;1.00;;;18.00;36.00;;;;;;8395890;28;20041;-48
2021/05/06 18:55:47;;;;;;;2.53;1.10;;;18.10;35.80;;;;;;8393308;28;20495;-49
2021/05/06 18:59:47;;;;;;;1.10;1.02;;;18.00;36.40;;;;;;8372580;28;20048;-49
2021/05/06 19:03:48;;;;;;;1.13;0.90;;;18.00;35.90;;;;;;8399805;28;20035;-50
2021/05/06 19:07:49;;;;;;;3.87;1.00;;;18.00;36.00;;;;;;8393734;28;20028;-48
2021/05/06 19:11:50;;;;;;;0.97;0.90;;;18.00;35.90;;;;;;8395003;28;20031;-49
2021/05/06 19:15:54;;;;;;;0.98;0.90;;;18.00;35.90;;;;;;8394817;28;20039;-49
2021/05/06 19:19:54;;;;;;;1.23;0.90;;;18.00;36.00;;;;;;8392768;28;20388;-49
2021/05/06 19:23:55;;;;;;;2.40;1.13;;;18.00;36.00;;;;;;8399071;28;20082;-48
2021/05/06 19:27:55;;;;;;;1.53;1.23;;;18.00;36.00;;;;;;8394335;28;20389;-48
2021/05/06 19:31:56;;;;;;;1.53;0.93;;;18.00;36.00;;;;;;8392717;28;20033;-49
2021/05/06 19:35:57;;;;;;;1.43;0.90;;;18.00;36.00;;;;;;8394128;28;20028;-51
2021/05/06 19:39:57;;;;;;;1.00;0.90;;;18.00;36.00;;;;;;8398728;28;20048;-49
2021/05/06 19:44:02;;;;;;;1.17;0.77;;;18.00;36.10;;;;;;8392202;28;20435;-48
2021/05/06 19:48:04;;;;;;;1.60;0.95;;;18.00;36.10;;;;;;8393869;28;20131;-48
2021/05/06 19:52:05;;;;;;;;;;;18.00;36.10;;;;;;8394320;28;20566;-49
2021/05/06 19:56:07;;;;;;;1.02;0.95;;;18.00;36.10;;;;;;8393191;28;19913;-49
2021/05/06 20:00:08;;;;;;;1.60;1.17;;;18.00;36.10;;;;;;8397968;28;20051;-49
2021/05/06 20:04:09;;;;;;;1.10;0.80;;;18.00;36.10;;;;;;8393361;28;20044;-48
2021/05/06 20:08:10;;;;;;;2.03;0.90;;;18.00;36.10;;;;;;8391731;28;20036;-50
2021/05/06 20:12:10;;;;;;;1.33;0.90;;;18.00;36.10;;;;;;8393491;28;20032;-49
2021/05/06 20:16:11;;;;;;;1.47;0.93;;;18.00;36.10;;;;;;8397575;28;20037;-48
2021/05/06 20:20:22;;;;;;;1.63;1.00;;;18.00;36.20;;;;;;8391003;28;20044;-48
2021/05/06 20:24:23;;;;;;;0.95;0.88;;;18.00;36.20;;;;;;8392812;28;20508;-49
2021/05/06 20:28:24;;;;;;;;;;;18.00;36.20;;;;;;8391189;28;20024;-48
2021/05/06 20:32:24;;;;;;;1.33;0.77;;;17.90;36.10;;;;;;8395592;28;20359;-48
2021/05/06 20:36:25;;;;;;;1.00;0.70;;;18.00;36.10;;;;;;8394831;28;20033;-50
2021/05/06 20:40:26;;;;;;;2.60;1.10;;;17.90;36.00;;;;;;8390253;28;20132;-49
2021/05/06 20:44:31;;;;;;;1.03;0.90;;;18.00;36.00;;;;;;8391968;28;20052;-49
2021/05/06 20:48:31;;;;;;;0.95;0.73;;;18.00;36.00;;;;;;8392078;28;20063;-49
2021/05/06 20:52:32;;;;;;;1.60;1.03;;;18.00;36.00;;;;;;8394748;28;20037;-47
2021/05/06 20:56:34;;;;;;;1.07;0.80;;;18.00;35.90;;;;;;8392202;28;20033;-51
2021/05/06 21:00:34;;;;;;;1.63;0.90;;;17.90;35.90;;;;;;8391613;28;20052;-49
2021/05/06 21:04:35;;;;;;;2.37;1.23;;;18.00;36.00;;;;;;8389751;28;20035;-49
2021/05/06 21:08:36;;;;;;;1.70;0.80;;;18.00;36.00;;;;;;8396205;28;20032;-50
2021/05/06 21:12:37;;;;;;;1.07;0.80;;;18.00;36.00;;;;;;8391685;28;20033;-52
2021/05/06 21:16:37;;;;;;;1.10;1.00;;;18.00;36.00;;;;;;8389597;28;20032;-50
2021/05/06 21:20:38;;;;;;;3.03;0.97;;;18.00;36.00;;;;;;8391222;28;20420;-49
2021/05/06 21:24:39;;;;;;;1.98;0.88;;;18.00;36.00;;;;;;8391193;28;20397;-50
2021/05/06 21:28:39;;;;;;;1.03;0.80;;;18.00;36.00;;;;;;8393958;28;20036;-49
2021/05/06 21:32:40;;;;;;;1.80;0.77;;;18.00;36.00;;;;;;8390884;28;20037;-51
2021/05/06 21:36:40;;;;;;;1.03;0.97;;;18.00;36.00;;;;;;8391255;28;20033;-51
2021/05/06 21:40:41;;;;;;;1.27;0.90;;;18.00;36.00;;;;;;8389216;28;20059;-49
2021/05/06 21:44:42;;;;;;;1.63;1.17;;;18.00;36.00;;;;;;8395392;28;20025;-48
2021/05/06 21:48:43;;;;;;;1.50;0.90;;;18.00;36.50;;;;;;8390640;28;20079;-50
2021/05/06 21:52:43;;;;;;;1.63;0.97;;;18.00;36.00;;;;;;8391570;28;20165;-50
2021/05/06 21:56:44;;;;;;;1.73;0.70;;;18.00;36.10;;;;;;8398280;28;20039;-51
2021/05/06 22:00:44;;;;;;;1.67;1.07;;;18.00;36.30;;;;;;8402634;28;20044;-51
2021/05/06 22:04:45;;;;;;;1.30;0.83;;;18.00;36.20;;;;;;8396600;28;20128;-49
2021/05/06 22:08:45;;;;;;;3.23;1.00;;;17.90;36.20;;;;;;8398209;28;20036;-50
2021/05/06 22:12:46;;;;;;;1.63;0.90;;;17.90;36.20;;;;;;8397699;28;20477;-50
2021/05/06 22:16:46;;;;;;;1.57;0.73;;;17.90;36.20;;;;;;8394925;28;20048;-49
2021/05/06 22:20:48;;;;;;;1.70;0.60;;;17.90;36.30;;;;;;8401289;28;20476;-50
2021/05/06 22:24:50;;;;;;;1.60;0.90;;;17.90;36.20;;;;;;8396375;28;20044;-49
2021/05/06 22:28:51;;;;;;;1.60;0.88;;;17.90;36.30;;;;;;8394838;28;20428;-49
2021/05/06 22:32:52;;;;;;;1.23;0.85;;;17.90;36.30;;;;;;8396233;28;20036;-50
2021/05/06 22:36:52;;;;;;;1.40;0.90;;;17.90;36.30;;;;;;8400666;28;20040;-50
2021/05/06 22:40:53;;;;;;;3.83;0.90;;;17.90;36.30;;;;;;8394195;28;20056;-51
2021/05/06 22:44:53;;;;;;;2.37;0.80;;;17.90;36.40;;;;;;8396089;28;20040;-50
2021/05/06 22:48:54;;;;;;;1.53;0.90;;;17.90;36.30;;;;;;8395646;28;20049;-50
2021/05/06 22:52:55;;;;;;;1.67;0.97;;;17.90;36.30;;;;;;8395202;28;20039;-49
2021/05/06 22:56:55;;;;;;;1.38;0.70;;;17.90;36.40;;;;;;8399149;28;20029;-52
2021/05/06 23:00:56;;;;;;;2.53;0.70;;;17.90;36.40;;;;;;8395374;28;20040;-50
2021/05/06 23:04:56;;;;;;;1.17;0.60;;;17.90;36.40;;;;;;8392641;27;20119;-51
2021/05/06 23:08:57;;;;;;;2.13;0.67;;;17.80;36.40;;;;;;8395397;28;20500;-49
2021/05/06 23:12:57;;;;;;;0.70;0.63;;;17.80;36.40;;;;;;8399594;28;20033;-50
2021/05/06 23:16:58;;;;;;;1.37;0.67;;;17.90;36.50;;;;;;8393294;28;20123;-50
2021/05/06 23:20:58;;;;;;;1.40;0.90;;;17.90;36.50;;;;;;8394623;28;20044;-50
2021/05/06 23:24:59;;;;;;;0.70;0.60;;;17.90;36.40;;;;;;8395192;28;20127;-50
2021/05/06 23:28:59;;;;;;;1.00;0.80;;;17.90;36.70;;;;;;8397550;28;20469;-49
2021/05/06 23:33:00;;;;;;;0.93;0.70;;;17.80;36.50;;;;;;8394414;28;20036;-48
2021/05/06 23:37:01;;;;;;;1.23;0.80;;;17.80;36.40;;;;;;8394260;28;20489;-49
2021/05/06 23:41:02;;;;;;;0.83;0.80;;;17.80;36.40;;;;;;8392513;28;20044;-50
2021/05/06 23:45:03;;;;;;;0.73;0.60;;;17.80;36.50;;;;;;8394277;28;20424;-51
2021/05/06 23:49:04;;;;;;;2.37;1.00;;;17.80;36.40;;;;;;8398526;28;20047;-48
2021/05/06 23:53:06;;;;;;;0.93;0.80;;;17.80;36.40;;;;;;8392130;28;20035;-48
2021/05/06 23:57:06;;;;;;;1.20;1.08;;;17.80;36.50;;;;;;8393770;28;20033;-49
